createdAt,value
2018-06-10T00:01:18.961Z,24.30
2018-06-10T00:03:48.492Z,24.30
2018-06-10T00:06:18.032Z,24.30
2018-06-10T00:08:47.556Z,24.30
2018-06-10T00:11:17.088Z,24.30
2018-06-10T00:13:46.593Z,24.30
2018-06-10T00:16:16.136Z,24.30
2018-06-10T00:18:45.659Z,24.20
2018-06-10T00:21:15.207Z,24.30
2018-06-10T00:26:13.999Z,24.30
2018-06-10T00:28:48.849Z,24.30
2018-06-10T00:31:18.370Z,24.30
2018-06-10T00:33:47.900Z,24.30
2018-06-10T00:36:17.425Z,24.30
2018-06-10T00:38:46.957Z,24.20
2018-06-10T00:41:16.461Z,24.20
2018-06-10T00:43:45.990Z,24.20
2018-06-10T00:48:44.591Z,24.20
2018-06-10T00:53:43.260Z,24.20
2018-06-10T00:56:24.268Z,24.20
2018-06-10T00:58:53.774Z,24.20
2018-06-10T01:01:23.321Z,24.20
2018-06-10T01:03:52.843Z,24.20
2018-06-10T01:06:22.365Z,24.20
2018-06-10T01:08:51.925Z,24.20
2018-06-10T01:11:21.457Z,24.20
2018-06-10T01:13:50.986Z,24.20
2018-06-10T01:16:20.549Z,24.20
2018-06-10T01:21:19.173Z,24.20
2018-06-10T01:23:48.702Z,24.20
2018-06-10T01:26:23.763Z,24.20
2018-06-10T01:31:22.366Z,24.20
2018-06-10T01:33:51.881Z,24.20
2018-06-10T01:36:21.420Z,24.20
2018-06-10T01:38:50.953Z,24.20
2018-06-10T01:41:20.499Z,24.20
2018-06-10T01:43:50.038Z,24.20
2018-06-10T01:48:48.625Z,24.20
2018-06-10T01:51:18.142Z,24.20
2018-06-10T01:53:47.691Z,24.20
2018-06-10T01:56:17.227Z,24.20
2018-06-10T01:58:46.752Z,24.20
2018-06-10T02:01:16.530Z,24.20
2018-06-10T02:03:46.061Z,24.20
2018-06-10T02:06:15.602Z,24.20
2018-06-10T02:08:45.121Z,24.20
2018-06-10T02:13:43.778Z,24.20
2018-06-10T02:16:13.302Z,24.20
2018-06-10T02:18:42.885Z,24.20
2018-06-10T02:21:12.426Z,24.10
2018-06-10T02:23:41.952Z,24.10
2018-06-10T02:26:11.469Z,24.10
2018-06-10T02:28:40.993Z,24.20
2018-06-10T02:31:10.526Z,24.10
2018-06-10T02:36:09.159Z,24.10
2018-06-10T02:38:38.670Z,24.10
2018-06-10T02:41:08.219Z,24.10
2018-06-10T02:43:37.754Z,24.10
2018-06-10T02:46:07.280Z,24.10
2018-06-10T02:51:06.036Z,24.10
2018-06-10T02:53:35.565Z,24.10
2018-06-10T02:56:05.109Z,24.10
2018-06-10T02:58:34.631Z,24.10
2018-06-10T03:01:04.153Z,24.10
2018-06-10T03:03:33.706Z,24.10
2018-06-10T03:06:03.241Z,24.10
2018-06-10T03:08:32.766Z,24.10
2018-06-10T03:13:31.358Z,24.10
2018-06-10T03:16:00.885Z,24.10
2018-06-10T03:18:30.407Z,24.10
2018-06-10T03:20:59.935Z,24.10
2018-06-10T03:23:29.455Z,24.10
2018-06-10T03:25:58.994Z,24.10
2018-06-10T03:28:28.499Z,24.10
2018-06-10T03:30:58.035Z,24.10
2018-06-10T03:33:27.552Z,24.10
2018-06-10T03:35:57.094Z,24.10
2018-06-10T03:40:55.829Z,24.10
2018-06-10T03:43:25.340Z,24.10
2018-06-10T03:45:54.890Z,24.10
2018-06-10T03:48:24.401Z,24.10
2018-06-10T03:50:53.934Z,24.10
2018-06-10T03:53:23.486Z,24.10
2018-06-10T03:55:53.018Z,24.10
2018-06-10T03:58:22.546Z,24.10
2018-06-10T04:00:52.081Z,24.10
2018-06-10T04:03:21.635Z,24.10
2018-06-10T04:08:20.213Z,24.00
2018-06-10T04:10:49.744Z,24.10
2018-06-10T04:13:19.292Z,24.10
2018-06-10T04:15:48.840Z,24.10
2018-06-10T04:18:18.435Z,24.00
2018-06-10T04:20:47.970Z,24.10
2018-06-10T04:23:18.429Z,24.10
2018-06-10T04:25:48.008Z,24.00
2018-06-10T04:28:17.529Z,24.00
2018-06-10T04:30:47.067Z,24.00
2018-06-10T04:33:16.573Z,24.10
2018-06-10T04:38:15.165Z,24.00
2018-06-10T04:40:44.699Z,24.00
2018-06-10T04:45:43.323Z,24.00
2018-06-10T04:48:12.826Z,24.00
2018-06-10T04:50:42.420Z,24.00
2018-06-10T04:53:11.954Z,24.00
2018-06-10T04:55:41.482Z,24.00
2018-06-10T04:58:11.313Z,24.00
2018-06-10T05:00:40.907Z,24.00
2018-06-10T05:03:10.442Z,24.00
2018-06-10T05:05:39.972Z,24.00
2018-06-10T05:08:09.530Z,23.80
2018-06-10T05:10:39.053Z,24.00
2018-06-10T05:13:08.577Z,24.00
2018-06-10T05:15:38.120Z,24.00
2018-06-10T05:18:07.641Z,24.00
2018-06-10T05:20:37.152Z,24.00
2018-06-10T05:23:06.687Z,23.90
2018-06-10T05:25:36.239Z,23.90
2018-06-10T05:30:34.836Z,23.90
2018-06-10T05:33:04.374Z,23.90
2018-06-10T05:35:33.919Z,23.90
2018-06-10T05:38:03.431Z,24.00
2018-06-10T05:40:32.944Z,23.90
2018-06-10T05:45:31.998Z,24.00
2018-06-10T05:48:01.521Z,23.90
2018-06-10T05:50:31.051Z,23.90
2018-06-10T05:53:00.573Z,23.90
2018-06-10T05:55:30.133Z,23.90
2018-06-10T05:57:59.711Z,23.90
2018-06-10T06:00:29.234Z,23.90
2018-06-10T06:02:58.742Z,23.90
2018-06-10T06:05:28.302Z,23.90
2018-06-10T06:10:26.894Z,23.90
2018-06-10T06:12:56.478Z,23.90
2018-06-10T06:15:26.087Z,23.90
2018-06-10T06:17:55.651Z,23.90
2018-06-10T06:20:25.228Z,23.90
2018-06-10T06:22:54.740Z,23.90
2018-06-10T06:25:24.272Z,23.90
2018-06-10T06:27:53.796Z,23.90
2018-06-10T06:30:23.331Z,23.90
2018-06-10T06:32:52.848Z,23.90
2018-06-10T06:35:22.381Z,23.90
2018-06-10T06:37:51.901Z,23.90
2018-06-10T06:42:50.485Z,23.90
2018-06-10T06:45:20.039Z,23.90
2018-06-10T06:47:49.572Z,23.90
2018-06-10T06:50:19.160Z,23.90
2018-06-10T06:55:17.819Z,23.90
2018-06-10T06:57:47.374Z,23.90
2018-06-10T07:00:16.873Z,23.90
2018-06-10T07:02:46.412Z,23.90
2018-06-10T07:05:15.976Z,23.90
2018-06-10T07:07:45.567Z,23.90
2018-06-10T07:12:44.176Z,23.90
2018-06-10T07:15:13.722Z,23.90
2018-06-10T07:17:44.225Z,23.90
2018-06-10T07:20:13.775Z,24.00
2018-06-10T07:22:43.317Z,23.90
2018-06-10T07:25:12.864Z,23.90
2018-06-10T07:27:42.407Z,23.90
2018-06-10T07:30:11.961Z,23.90
2018-06-10T07:32:41.501Z,23.90
2018-06-10T07:35:11.079Z,23.90
2018-06-10T07:37:40.591Z,23.90
2018-06-10T07:40:10.117Z,23.90
2018-06-10T07:47:38.128Z,23.90
2018-06-10T07:50:07.676Z,24.00
2018-06-10T07:52:37.234Z,23.90
2018-06-10T07:55:06.761Z,23.90
2018-06-10T07:57:36.358Z,23.90
2018-06-10T08:00:05.911Z,23.90
2018-06-10T08:02:35.716Z,23.90
2018-06-10T08:05:05.229Z,23.90
2018-06-10T08:07:34.833Z,23.90
2018-06-10T08:10:04.380Z,23.90
2018-06-10T08:12:33.937Z,23.90
2018-06-10T08:15:03.480Z,23.90
2018-06-10T08:17:33.002Z,23.90
2018-06-10T08:22:32.016Z,23.90
2018-06-10T08:25:01.742Z,23.90
2018-06-10T08:27:31.475Z,23.90
2018-06-10T08:30:01.049Z,23.90
2018-06-10T08:32:30.628Z,23.90
2018-06-10T08:35:00.153Z,23.90
2018-06-10T08:39:58.986Z,23.90
2018-06-10T08:42:28.533Z,23.90
2018-06-10T08:44:58.075Z,23.90
2018-06-10T08:47:27.607Z,23.90
2018-06-10T08:49:57.135Z,23.90
2018-06-10T08:52:26.671Z,23.90
2018-06-10T08:54:56.191Z,23.90
2018-06-10T08:57:25.720Z,23.90
2018-06-10T08:59:55.311Z,23.90
2018-06-10T09:07:23.049Z,23.90
2018-06-10T09:09:52.589Z,23.80
2018-06-10T09:12:22.148Z,23.80
2018-06-10T09:14:51.690Z,23.80
2018-06-10T09:19:50.412Z,23.80
2018-06-10T09:22:19.989Z,23.90
2018-06-10T09:24:49.762Z,23.80
2018-06-10T09:27:19.299Z,23.80
2018-06-10T09:29:48.828Z,23.80
2018-06-10T09:32:18.356Z,23.80
2018-06-10T09:34:47.896Z,23.80
2018-06-10T09:37:17.443Z,23.80
2018-06-10T09:39:47.033Z,23.80
2018-06-10T09:44:45.684Z,23.90
2018-06-10T09:47:15.202Z,23.80
2018-06-10T09:52:14.193Z,23.80
2018-06-10T09:54:43.744Z,23.80
2018-06-10T09:57:13.289Z,23.80
2018-06-10T09:59:42.801Z,23.80
2018-06-10T10:02:12.337Z,23.80
2018-06-10T10:07:10.984Z,23.80
2018-06-10T10:09:40.489Z,23.80
2018-06-10T10:12:10.031Z,23.80
2018-06-10T10:14:39.648Z,23.80
2018-06-10T10:17:09.105Z,23.80
2018-06-10T10:24:37.532Z,23.80
2018-06-10T10:27:07.065Z,23.80
2018-06-10T10:29:36.614Z,23.80
2018-06-10T10:32:06.293Z,23.70
2018-06-10T10:34:35.867Z,23.80
2018-06-10T10:37:05.401Z,23.80
2018-06-10T10:39:34.907Z,23.70
2018-06-10T10:44:33.525Z,23.80
2018-06-10T10:47:03.203Z,23.70
2018-06-10T10:52:02.005Z,23.70
2018-06-10T10:54:31.529Z,23.80
2018-06-10T10:57:07.798Z,23.70
2018-06-10T11:02:06.814Z,23.70
2018-06-10T11:04:36.349Z,23.80
2018-06-10T11:07:05.882Z,23.70
2018-06-10T11:09:35.409Z,23.70
2018-06-10T11:12:05.052Z,23.70
2018-06-10T11:14:34.599Z,23.70
2018-06-10T11:17:04.144Z,23.70
2018-06-10T11:19:33.676Z,23.70
2018-06-10T11:22:03.192Z,23.70
2018-06-10T11:27:01.826Z,23.70
2018-06-10T11:29:31.349Z,23.70
2018-06-10T11:32:00.877Z,23.70
2018-06-10T11:34:30.433Z,23.70
2018-06-10T11:37:00.010Z,23.70
2018-06-10T11:39:29.536Z,23.70
2018-06-10T11:41:59.063Z,23.70
2018-06-10T11:44:28.581Z,23.70
2018-06-10T11:46:58.118Z,23.70
2018-06-10T11:49:27.648Z,23.70
2018-06-10T11:54:26.421Z,23.70
2018-06-10T11:56:55.960Z,23.70
2018-06-10T11:59:25.481Z,23.70
2018-06-10T12:01:55.036Z,23.70
2018-06-10T12:04:24.571Z,23.70
2018-06-10T12:06:54.081Z,23.70
2018-06-10T12:09:23.636Z,23.70
2018-06-10T12:11:53.168Z,23.70
2018-06-10T12:16:51.784Z,23.70
2018-06-10T12:19:21.657Z,23.70
2018-06-10T12:21:51.211Z,23.70
2018-06-10T12:24:20.839Z,23.60
2018-06-10T12:26:50.433Z,23.70
2018-06-10T12:29:20.040Z,23.70
2018-06-10T12:31:49.517Z,23.70
2018-06-10T12:34:19.041Z,23.70
2018-06-10T12:36:48.557Z,23.70
2018-06-10T12:39:18.091Z,23.70
2018-06-10T12:41:47.626Z,23.70
2018-06-10T12:44:17.172Z,23.70
2018-06-10T12:46:46.695Z,23.70
2018-06-10T12:49:16.293Z,23.70
2018-06-10T12:51:45.972Z,23.70
2018-06-10T12:54:15.514Z,23.70
2018-06-10T12:56:45.058Z,23.70
2018-06-10T12:59:14.592Z,23.70
2018-06-10T13:01:44.105Z,23.70
2018-06-10T13:04:13.724Z,23.70
2018-06-10T13:06:43.372Z,23.70
2018-06-10T13:09:12.907Z,23.70
2018-06-10T13:11:42.467Z,23.70
2018-06-10T13:14:11.964Z,23.70
2018-06-10T13:16:41.523Z,23.70
2018-06-10T13:19:11.045Z,23.70
2018-06-10T13:21:40.580Z,23.70
2018-06-10T13:24:10.100Z,23.70
2018-06-10T13:26:39.645Z,23.70
2018-06-10T13:29:09.160Z,23.70
2018-06-10T13:31:38.685Z,23.70
2018-06-10T13:34:08.213Z,23.70
2018-06-10T13:36:37.745Z,23.70
2018-06-10T13:41:36.953Z,23.70
2018-06-10T13:44:06.568Z,23.70
2018-06-10T13:46:36.097Z,23.70
2018-06-10T13:49:05.633Z,23.70
2018-06-10T13:51:35.167Z,23.70
2018-06-10T13:54:04.691Z,23.70
2018-06-10T13:56:34.227Z,23.70
2018-06-10T13:59:03.740Z,23.70
2018-06-10T14:01:33.268Z,23.70
2018-06-10T14:04:02.803Z,23.70
2018-06-10T14:06:32.350Z,23.70
2018-06-10T14:11:30.939Z,23.70
2018-06-10T14:14:00.501Z,23.80
2018-06-10T14:16:30.026Z,23.80
2018-06-10T14:18:59.565Z,23.80
2018-06-10T14:21:29.125Z,23.80
2018-06-10T14:23:58.635Z,23.70
2018-06-10T14:28:57.243Z,23.70
2018-06-10T14:31:26.769Z,23.70
2018-06-10T14:33:56.370Z,23.70
2018-06-10T14:38:55.028Z,23.80
2018-06-10T14:41:24.613Z,23.70
2018-06-10T14:46:23.229Z,23.70
2018-06-10T14:48:52.782Z,23.70
2018-06-10T14:51:22.313Z,23.70
2018-06-10T14:53:51.847Z,23.70
2018-06-10T14:58:50.457Z,23.80
2018-06-10T15:01:19.969Z,23.70
2018-06-10T15:03:49.565Z,23.70
2018-06-10T15:06:19.100Z,23.80
2018-06-10T15:08:48.637Z,23.80
2018-06-10T15:11:18.169Z,23.80
2018-06-10T15:16:16.825Z,23.80
2018-06-10T15:18:46.352Z,23.80
2018-06-10T15:21:15.863Z,23.80
2018-06-10T15:23:45.474Z,23.70
2018-06-10T15:28:44.148Z,23.70
2018-06-10T15:33:42.804Z,23.70
2018-06-10T15:36:12.314Z,23.70
2018-06-10T15:38:42.053Z,23.70
2018-06-10T15:43:40.716Z,23.70
2018-06-10T15:46:10.495Z,23.70
2018-06-10T15:48:40.021Z,23.70
2018-06-10T15:51:09.538Z,23.70
2018-06-10T15:53:39.107Z,23.70
2018-06-10T15:56:08.613Z,23.70
2018-06-10T15:58:38.139Z,23.70
2018-06-10T16:01:07.672Z,23.50
2018-06-10T16:03:37.201Z,23.70
2018-06-10T16:06:06.737Z,23.70
2018-06-10T16:08:36.265Z,23.70
2018-06-10T16:13:34.904Z,23.70
2018-06-10T16:16:04.424Z,23.70
2018-06-10T16:18:33.952Z,23.70
2018-06-10T16:21:03.772Z,23.60
2018-06-10T16:23:33.347Z,23.60
2018-06-10T16:26:02.930Z,23.60
2018-06-10T16:28:32.449Z,23.70
2018-06-10T16:31:01.988Z,23.60
2018-06-10T16:33:31.785Z,23.60
2018-06-10T16:36:01.327Z,23.60
2018-06-10T16:38:30.841Z,23.60
2018-06-10T16:41:00.388Z,23.60
2018-06-10T16:43:29.919Z,23.60
2018-06-10T16:45:59.447Z,23.60
2018-06-10T16:48:28.969Z,23.60
2018-06-10T16:50:58.480Z,23.60
2018-06-10T16:55:57.463Z,23.60
2018-06-10T16:58:27.215Z,23.60
2018-06-10T17:00:56.740Z,23.60
2018-06-10T17:03:26.271Z,23.60
2018-06-10T17:10:54.445Z,23.60
2018-06-10T17:13:23.982Z,23.50
2018-06-10T17:15:53.513Z,23.50
2018-06-10T17:18:23.036Z,23.50
2018-06-10T17:23:21.638Z,23.50
2018-06-10T17:28:20.367Z,23.50
2018-06-10T17:30:49.966Z,23.50
2018-06-10T17:33:19.507Z,23.50
2018-06-10T17:35:49.019Z,23.50
2018-06-10T17:38:18.545Z,23.50
2018-06-10T17:40:48.060Z,23.50
2018-06-10T17:43:17.573Z,23.50
2018-06-10T17:45:47.106Z,23.50
2018-06-10T17:48:16.676Z,23.50
2018-06-10T17:53:15.314Z,23.50
2018-06-10T17:55:44.912Z,23.50
2018-06-10T17:58:14.477Z,23.50
2018-06-10T18:00:44.062Z,23.50
2018-06-10T18:03:13.610Z,23.50
2018-06-10T18:05:43.133Z,23.60
2018-06-10T18:08:12.652Z,23.50
2018-06-10T18:10:42.195Z,23.60
2018-06-10T18:15:40.810Z,23.50
2018-06-10T18:23:08.559Z,23.50
2018-06-10T18:25:38.102Z,23.60
2018-06-10T18:28:07.673Z,23.50
2018-06-10T18:33:06.289Z,23.50
2018-06-10T18:35:35.813Z,23.50
2018-06-10T18:43:04.222Z,23.50
2018-06-10T18:45:33.719Z,23.50
2018-06-10T18:48:03.251Z,23.50
2018-06-10T18:50:32.762Z,23.50
2018-06-10T18:53:02.304Z,23.50
2018-06-10T18:55:31.896Z,23.40
2018-06-10T18:58:01.462Z,23.50
2018-06-10T19:00:30.992Z,23.50
2018-06-10T19:03:00.547Z,23.50
2018-06-10T19:05:30.058Z,23.50
2018-06-10T19:10:28.662Z,23.40
2018-06-10T19:12:58.222Z,23.40
2018-06-10T19:15:28.013Z,23.40
2018-06-10T19:17:57.586Z,23.40
2018-06-10T19:20:27.113Z,23.40
2018-06-10T19:22:56.645Z,23.30
2018-06-10T19:25:26.228Z,23.40
2018-06-10T19:27:55.722Z,23.40
2018-06-10T19:30:25.264Z,23.40
2018-06-10T19:32:54.776Z,23.40
2018-06-10T19:35:24.308Z,23.40
2018-06-10T19:37:53.843Z,23.30
2018-06-10T19:40:23.367Z,23.40
2018-06-10T19:42:52.901Z,23.40
2018-06-10T19:45:22.434Z,23.40
2018-06-10T19:47:51.976Z,23.30
2018-06-10T19:50:21.507Z,23.40
2018-06-10T19:52:51.054Z,23.30
2018-06-10T19:57:49.717Z,23.30
2018-06-10T20:00:19.542Z,23.30
2018-06-10T20:02:49.061Z,23.30
2018-06-10T20:05:18.573Z,23.20
2018-06-10T20:07:48.096Z,23.30
2018-06-10T20:10:17.611Z,23.30
2018-06-10T20:12:47.138Z,23.30
2018-06-10T20:15:16.906Z,23.30
2018-06-10T20:17:46.425Z,23.30
2018-06-10T20:20:15.953Z,23.30
2018-06-10T20:22:45.477Z,23.30
2018-06-10T20:27:44.122Z,23.30
2018-06-10T20:30:13.696Z,23.30
2018-06-10T20:32:43.183Z,23.30
2018-06-10T20:35:12.760Z,23.30
2018-06-10T20:37:42.288Z,23.30
2018-06-10T20:40:11.810Z,23.30
2018-06-10T20:42:41.407Z,23.20
2018-06-10T20:45:10.938Z,23.20
2018-06-10T20:47:40.492Z,23.20
2018-06-10T20:50:10.005Z,23.20
2018-06-10T20:52:39.538Z,23.20
2018-06-10T20:57:38.194Z,23.20
2018-06-10T21:00:07.719Z,23.20
2018-06-10T21:02:37.263Z,23.20
2018-06-10T21:05:06.786Z,23.20
2018-06-10T21:12:34.555Z,23.20
2018-06-10T21:15:04.434Z,23.20
2018-06-10T21:17:33.996Z,23.20
2018-06-10T21:20:03.526Z,23.20
2018-06-10T21:22:33.067Z,23.20
2018-06-10T21:25:02.572Z,23.20
2018-06-10T21:27:32.131Z,23.10
2018-06-10T21:30:01.658Z,23.20
2018-06-10T21:32:31.191Z,23.20
2018-06-10T21:39:58.879Z,23.10
2018-06-10T21:42:28.397Z,23.10
2018-06-10T21:44:57.940Z,23.10
2018-06-10T21:47:27.519Z,23.10
2018-06-10T21:49:56.991Z,23.10
2018-06-10T21:52:26.568Z,23.10
2018-06-10T21:54:56.101Z,23.10
2018-06-10T21:59:54.719Z,23.10
2018-06-10T22:02:24.253Z,23.10
2018-06-10T22:04:53.784Z,23.10
2018-06-10T22:07:23.345Z,23.10
2018-06-10T22:12:21.952Z,23.10
2018-06-10T22:14:51.461Z,23.10
2018-06-10T22:17:21.003Z,23.10
2018-06-10T22:19:50.528Z,23.10
2018-06-10T22:32:16.485Z,23.00
2018-06-10T22:37:15.101Z,23.00
2018-06-10T22:39:44.647Z,23.00
2018-06-10T22:42:14.173Z,23.00
2018-06-10T22:44:43.706Z,23.00
2018-06-10T22:47:13.233Z,23.00
2018-06-10T22:49:42.841Z,23.10
2018-06-10T22:52:12.424Z,23.00
2018-06-10T22:54:44.740Z,23.00
2018-06-10T22:57:14.329Z,23.00
2018-06-10T22:59:43.859Z,23.00
2018-06-10T23:02:13.400Z,23.00
2018-06-10T23:04:42.933Z,23.00
2018-06-10T23:07:12.558Z,23.00
2018-06-10T23:09:42.037Z,23.00
2018-06-10T23:12:11.558Z,23.00
2018-06-10T23:17:10.389Z,23.00
2018-06-10T23:19:39.950Z,22.90
2018-06-10T23:22:09.484Z,23.00
2018-06-10T23:24:39.064Z,23.00
2018-06-10T23:29:37.782Z,22.90
2018-06-10T23:34:36.396Z,23.00
2018-06-10T23:37:05.925Z,22.90
2018-06-10T23:39:35.437Z,22.90
2018-06-10T23:42:04.981Z,22.90
2018-06-10T23:47:03.853Z,22.90
2018-06-10T23:49:33.385Z,22.90
2018-06-10T23:52:02.909Z,22.90
2018-06-10T23:54:32.445Z,22.90
2018-06-10T23:57:01.966Z,22.90
